Burlington, MI (49029)

6:58 PM EDT on September 20, 2014 (GMT -0400)
Simington Farms Home | Change Station
CLOSE
Current Station
Personal Weather Station
Location: Union City, MI
Elevation: 984 ft
Nearby Weather Stations

Elev 984 ft 42.03 °N, 85.09 °W | Updated 2 minutes ago

Thunderstorm
Thunderstorm
64.4 °F
Feels Like 64.4 °F
N
1.0
Wind Variable Wind from SSW
Gusts 5.0 mph

Today
High -- | Low -- °F
--% Chance of Precip.
Yesterday
High -- | Low -- °F
Precip. -- in
7:25 AM 7:41 PM
Waning Crescent, 10% visible
Pressure 29.80 in
Visibility 7.0 miles
Clouds Scattered Clouds 7000 ft
Scattered Clouds 9500 ft
Overcast 11000 ft
Dew Point 63 °F
Humidity 96%
Rainfall 1.14 in
Snow Depth Not available.
UV 0 out of 12
Pollen 3.10 out of 12
Ozone Good
PM2.5 Moderate
Flu Activity Not available.
METAR KRMY 202234Z AUTO 22006KT 7SM RA SCT070 SCT095 OVC110 20/19 A2980 RMK AO2 P0005 T01950189

More Conditions Fewer Conditions

Pressure 29.80 in
Visibility 7.0 miles
Clouds Scattered Clouds 7000 ft
Scattered Clouds 9500 ft
Overcast 11000 ft
Dew Point 63 °F
Humidity 96%
Rainfall 1.14 in
Snow Depth Not available.
UV 0 out of 12
Pollen 3.10 out of 12
Ozone Good
PM2.5 Moderate
Flu Activity Not available.
METAR KRMY 202234Z AUTO 22006KT 7SM RA SCT070 SCT095 OVC110 20/19 A2980 RMK AO2 P0005 T01950189

More Conditions Fewer Conditions

10-Day Weather Forecast

Almanac

Astronomy

Sep. 20, 2014 Rise Set
Actual Time 7:25 AM EDT 7:41 PM EDT
Civil Twilight 6:57 AM EDT 8:09 PM EDT
Nautical Twilight 6:24 AM EDT 8:41 PM EDT
Astronomical Twilight 5:51 AM EDT 9:15 PM EDT
Moon 4:01 AM EDT 5:46 PM EDT
Length of Visible Light 13h 11m
Length of Day
12h 15m
Tomorrow will be 2m 48s shorter.
Waning Crescent, 10% of the Moon is Illuminated
Today
Waning Crescent
Sep 24
New
Oct 1
First Quarter
Oct 8
Full
Oct 15
Last Quarter

Today's Extremes

State Highs State Lows

Community

WunderPhotos

Upload Photos

1,754,970 photos uploaded!

WunderBlogs® & News

Nearby

Air Quality

  Air Quality AQ Index Pollutant
Yesterday Good
PM2.5
Yesterday Good
OZONE
Current Moderate
PM2.5
Current Good
OZONE
Saturday Good
OZONE
Saturday Good
PM2.5
Sunday Good
OZONE
Sunday Good
PM2.5
Monday Good
OZONE
Monday Good
PM2.5

Snow Depth

Station Depth Elevation
No new snow has been reported.

Earthquake Activity

City Distance Mag. Time & Date
No recent earthquake activity has been reported nearby.
Minimum magnitude displayed is 2.5.

Coastal Water Temperatures

Place Temperature
No Stations Reporting

Nearby Weather Stations